sensor_id;sensor_type;location;lat;lon;timestamp;P1;durP1;ratioP1;P2;durP2;ratioP2
7831;SDS011;3961;42.058;25.586;2022-11-06T00:01:26;39.07;;;21.87;;
7831;SDS011;3961;42.058;25.586;2022-11-06T00:03:52;35.33;;;20.80;;
7831;SDS011;3961;42.058;25.586;2022-11-06T00:06:18;32.00;;;21.40;;
7831;SDS011;3961;42.058;25.586;2022-11-06T00:09:04;37.87;;;22.23;;
7831;SDS011;3961;42.058;25.586;2022-11-06T00:11:31;38.87;;;21.87;;
7831;SDS011;3961;42.058;25.586;2022-11-06T00:13:58;38.63;;;21.57;;
7831;SDS011;3961;42.058;25.586;2022-11-06T00:16:24;40.33;;;21.17;;
7831;SDS011;3961;42.058;25.586;2022-11-06T00:18:50;31.50;;;19.07;;
7831;SDS011;3961;42.058;25.586;2022-11-06T00:21:20;31.33;;;18.47;;
7831;SDS011;3961;42.058;25.586;2022-11-06T00:23:47;31.10;;;18.73;;
7831;SDS011;3961;42.058;25.586;2022-11-06T00:26:14;31.87;;;18.23;;
7831;SDS011;3961;42.058;25.586;2022-11-06T00:28:42;30.90;;;19.13;;
7831;SDS011;3961;42.058;25.586;2022-11-06T00:31:09;34.13;;;18.50;;
7831;SDS011;3961;42.058;25.586;2022-11-06T00:33:37;32.67;;;18.90;;
7831;SDS011;3961;42.058;25.586;2022-11-06T00:36:04;32.17;;;17.53;;
7831;SDS011;3961;42.058;25.586;2022-11-06T00:38:31;32.97;;;17.23;;
7831;SDS011;3961;42.058;25.586;2022-11-06T00:41:00;28.67;;;18.43;;
7831;SDS011;3961;42.058;25.586;2022-11-06T00:43:30;27.57;;;17.53;;
7831;SDS011;3961;42.058;25.586;2022-11-06T00:46:03;35.97;;;18.50;;
7831;SDS011;3961;42.058;25.586;2022-11-06T00:48:31;29.07;;;19.10;;
7831;SDS011;3961;42.058;25.586;2022-11-06T00:51:03;37.20;;;19.57;;
7831;SDS011;3961;42.058;25.586;2022-11-06T00:53:30;35.07;;;19.83;;
7831;SDS011;3961;42.058;25.586;2022-11-06T00:56:05;32.33;;;18.43;;
7831;SDS011;3961;42.058;25.586;2022-11-06T00:58:36;38.50;;;20.43;;
7831;SDS011;3961;42.058;25.586;2022-11-06T01:01:08;29.63;;;19.43;;
7831;SDS011;3961;42.058;25.586;2022-11-06T01:03:40;33.13;;;20.40;;
7831;SDS011;3961;42.058;25.586;2022-11-06T01:08:38;36.43;;;20.10;;
7831;SDS011;3961;42.058;25.586;2022-11-06T01:11:05;33.40;;;19.27;;
7831;SDS011;3961;42.058;25.586;2022-11-06T01:13:32;34.53;;;19.50;;
7831;SDS011;3961;42.058;25.586;2022-11-06T01:15:57;38.87;;;20.13;;
7831;SDS011;3961;42.058;25.586;2022-11-06T01:18:23;26.63;;;18.50;;
7831;SDS011;3961;42.058;25.586;2022-11-06T01:20:48;30.07;;;19.53;;
7831;SDS011;3961;42.058;25.586;2022-11-06T01:23:14;35.93;;;21.20;;
7831;SDS011;3961;42.058;25.586;2022-11-06T01:25:39;39.27;;;20.40;;
7831;SDS011;3961;42.058;25.586;2022-11-06T01:28:05;38.17;;;20.43;;
7831;SDS011;3961;42.058;25.586;2022-11-06T01:30:33;39.70;;;21.17;;
7831;SDS011;3961;42.058;25.586;2022-11-06T01:33:00;41.40;;;20.57;;
7831;SDS011;3961;42.058;25.586;2022-11-06T01:35:26;35.17;;;20.63;;
7831;SDS011;3961;42.058;25.586;2022-11-06T01:37:52;36.00;;;20.43;;
7831;SDS011;3961;42.058;25.586;2022-11-06T01:40:17;32.83;;;19.77;;
7831;SDS011;3961;42.058;25.586;2022-11-06T01:42:42;34.53;;;19.33;;
7831;SDS011;3961;42.058;25.586;2022-11-06T01:45:16;34.33;;;19.53;;
7831;SDS011;3961;42.058;25.586;2022-11-06T01:47:48;37.57;;;21.03;;
7831;SDS011;3961;42.058;25.586;2022-11-06T01:50:14;37.37;;;19.73;;
7831;SDS011;3961;42.058;25.586;2022-11-06T01:52:40;32.93;;;20.33;;
7831;SDS011;3961;42.058;25.586;2022-11-06T01:55:08;38.83;;;20.70;;
7831;SDS011;3961;42.058;25.586;2022-11-06T01:57:38;33.57;;;20.43;;
7831;SDS011;3961;42.058;25.586;2022-11-06T02:00:04;34.80;;;20.70;;
7831;SDS011;3961;42.058;25.586;2022-11-06T02:02:31;38.70;;;20.83;;
7831;SDS011;3961;42.058;25.586;2022-11-06T02:04:57;36.00;;;19.90;;
7831;SDS011;3961;42.058;25.586;2022-11-06T02:07:22;38.73;;;21.33;;
7831;SDS011;3961;42.058;25.586;2022-11-06T02:09:48;34.07;;;19.00;;
7831;SDS011;3961;42.058;25.586;2022-11-06T02:24:04;32.93;;;21.00;;
7831;SDS011;3961;42.058;25.586;2022-11-06T02:29:35;32.43;;;20.60;;
7831;SDS011;3961;42.058;25.586;2022-11-06T02:32:10;47.43;;;21.87;;
7831;SDS011;3961;42.058;25.586;2022-11-06T02:34:41;44.43;;;23.00;;
7831;SDS011;3961;42.058;25.586;2022-11-06T02:37:12;31.57;;;21.20;;
7831;SDS011;3961;42.058;25.586;2022-11-06T02:39:42;37.17;;;21.17;;
7831;SDS011;3961;42.058;25.586;2022-11-06T02:42:10;40.00;;;22.27;;
7831;SDS011;3961;42.058;25.586;2022-11-06T02:44:39;34.87;;;22.53;;
7831;SDS011;3961;42.058;25.586;2022-11-06T02:47:09;49.87;;;24.33;;
7831;SDS011;3961;42.058;25.586;2022-11-06T02:49:37;38.17;;;23.60;;
7831;SDS011;3961;42.058;25.586;2022-11-06T02:52:09;42.63;;;23.90;;
7831;SDS011;3961;42.058;25.586;2022-11-06T02:54:41;47.00;;;24.13;;
7831;SDS011;3961;42.058;25.586;2022-11-06T02:57:12;42.20;;;24.40;;
7831;SDS011;3961;42.058;25.586;2022-11-06T02:59:42;35.93;;;23.47;;
7831;SDS011;3961;42.058;25.586;2022-11-06T03:02:16;39.20;;;22.83;;
7831;SDS011;3961;42.058;25.586;2022-11-06T03:04:58;33.77;;;21.57;;
7831;SDS011;3961;42.058;25.586;2022-11-06T03:07:32;38.83;;;21.93;;
7831;SDS011;3961;42.058;25.586;2022-11-06T03:10:03;35.37;;;21.43;;
7831;SDS011;3961;42.058;25.586;2022-11-06T03:12:31;41.53;;;22.30;;
7831;SDS011;3961;42.058;25.586;2022-11-06T03:15:24;39.83;;;22.23;;
7831;SDS011;3961;42.058;25.586;2022-11-06T03:17:59;37.30;;;21.80;;
7831;SDS011;3961;42.058;25.586;2022-11-06T03:20:30;34.67;;;20.13;;
7831;SDS011;3961;42.058;25.586;2022-11-06T03:28:29;40.60;;;21.50;;
7831;SDS011;3961;42.058;25.586;2022-11-06T03:31:00;35.53;;;21.07;;
7831;SDS011;3961;42.058;25.586;2022-11-06T03:33:31;39.07;;;22.53;;
7831;SDS011;3961;42.058;25.586;2022-11-06T03:36:13;42.80;;;20.90;;
7831;SDS011;3961;42.058;25.586;2022-11-06T03:38:50;40.90;;;21.07;;
7831;SDS011;3961;42.058;25.586;2022-11-06T03:43:53;35.80;;;21.73;;
7831;SDS011;3961;42.058;25.586;2022-11-06T03:46:22;41.23;;;21.70;;
7831;SDS011;3961;42.058;25.586;2022-11-06T03:48:54;37.90;;;22.00;;
7831;SDS011;3961;42.058;25.586;2022-11-06T03:52:10;43.33;;;21.93;;
7831;SDS011;3961;42.058;25.586;2022-11-06T03:54:18;41.07;;;21.97;;
7831;SDS011;3961;42.058;25.586;2022-11-06T03:56:59;53.13;;;23.47;;
7831;SDS011;3961;42.058;25.586;2022-11-06T03:59:33;43.60;;;21.57;;
7831;SDS011;3961;42.058;25.586;2022-11-06T04:02:03;39.30;;;22.20;;
7831;SDS011;3961;42.058;25.586;2022-11-06T04:04:31;35.63;;;22.43;;
7831;SDS011;3961;42.058;25.586;2022-11-06T04:07:07;41.90;;;21.57;;
7831;SDS011;3961;42.058;25.586;2022-11-06T04:09:36;36.00;;;21.80;;
7831;SDS011;3961;42.058;25.586;2022-11-06T04:12:24;40.73;;;22.23;;
7831;SDS011;3961;42.058;25.586;2022-11-06T04:15:13;40.33;;;20.53;;
7831;SDS011;3961;42.058;25.586;2022-11-06T04:17:41;39.93;;;21.77;;
7831;SDS011;3961;42.058;25.586;2022-11-06T04:20:08;35.23;;;21.87;;
7831;SDS011;3961;42.058;25.586;2022-11-06T04:23:00;35.63;;;21.50;;
7831;SDS011;3961;42.058;25.586;2022-11-06T04:26:02;41.90;;;22.97;;
7831;SDS011;3961;42.058;25.586;2022-11-06T04:39:54;29.63;;;18.37;;
7831;SDS011;3961;42.058;25.586;2022-11-06T04:42:32;32.37;;;17.97;;
7831;SDS011;3961;42.058;25.586;2022-11-06T04:45:10;30.67;;;17.67;;
7831;SDS011;3961;42.058;25.586;2022-11-06T04:47:48;32.03;;;16.50;;
7831;SDS011;3961;42.058;25.586;2022-11-06T04:50:16;36.80;;;16.97;;
7831;SDS011;3961;42.058;25.586;2022-11-06T04:52:44;27.07;;;17.00;;
7831;SDS011;3961;42.058;25.586;2022-11-06T04:55:11;33.23;;;16.93;;
7831;SDS011;3961;42.058;25.586;2022-11-06T04:57:37;30.33;;;17.13;;
7831;SDS011;3961;42.058;25.586;2022-11-06T05:00:03;32.63;;;18.17;;
7831;SDS011;3961;42.058;25.586;2022-11-06T05:02:29;34.40;;;17.70;;
7831;SDS011;3961;42.058;25.586;2022-11-06T05:04:54;31.93;;;17.30;;
7831;SDS011;3961;42.058;25.586;2022-11-06T05:07:20;32.67;;;17.17;;
7831;SDS011;3961;42.058;25.586;2022-11-06T05:09:45;31.37;;;18.17;;
7831;SDS011;3961;42.058;25.586;2022-11-06T05:12:11;35.70;;;16.50;;
7831;SDS011;3961;42.058;25.586;2022-11-06T05:14:36;39.20;;;18.23;;
7831;SDS011;3961;42.058;25.586;2022-11-06T05:17:02;31.47;;;17.83;;
7831;SDS011;3961;42.058;25.586;2022-11-06T05:19:27;33.03;;;18.27;;
7831;SDS011;3961;42.058;25.586;2022-11-06T05:21:53;30.40;;;18.43;;
7831;SDS011;3961;42.058;25.586;2022-11-06T05:24:37;31.47;;;17.40;;
7831;SDS011;3961;42.058;25.586;2022-11-06T05:27:02;35.47;;;17.83;;
7831;SDS011;3961;42.058;25.586;2022-11-06T05:29:28;30.00;;;17.83;;
7831;SDS011;3961;42.058;25.586;2022-11-06T05:31:54;27.97;;;16.27;;
7831;SDS011;3961;42.058;25.586;2022-11-06T05:34:19;35.33;;;16.57;;
7831;SDS011;3961;42.058;25.586;2022-11-06T05:36:45;38.13;;;17.80;;
7831;SDS011;3961;42.058;25.586;2022-11-06T05:39:11;29.67;;;17.50;;
7831;SDS011;3961;42.058;25.586;2022-11-06T05:41:36;35.40;;;17.83;;
7831;SDS011;3961;42.058;25.586;2022-11-06T05:44:02;28.77;;;16.83;;
7831;SDS011;3961;42.058;25.586;2022-11-06T05:46:27;33.80;;;16.20;;
7831;SDS011;3961;42.058;25.586;2022-11-06T05:48:53;24.23;;;16.87;;
7831;SDS011;3961;42.058;25.586;2022-11-06T05:51:19;30.23;;;16.80;;
7831;SDS011;3961;42.058;25.586;2022-11-06T05:53:44;27.50;;;16.20;;
7831;SDS011;3961;42.058;25.586;2022-11-06T05:56:09;32.30;;;16.30;;
7831;SDS011;3961;42.058;25.586;2022-11-06T05:58:35;30.53;;;16.47;;
7831;SDS011;3961;42.058;25.586;2022-11-06T06:01:00;32.67;;;15.33;;
7831;SDS011;3961;42.058;25.586;2022-11-06T06:03:26;32.37;;;16.30;;
7831;SDS011;3961;42.058;25.586;2022-11-06T06:05:52;29.37;;;16.53;;
7831;SDS011;3961;42.058;25.586;2022-11-06T06:08:17;32.90;;;16.97;;
7831;SDS011;3961;42.058;25.586;2022-11-06T06:10:44;30.60;;;16.50;;
7831;SDS011;3961;42.058;25.586;2022-11-06T06:13:11;33.90;;;16.90;;
7831;SDS011;3961;42.058;25.586;2022-11-06T06:15:38;30.33;;;16.80;;
7831;SDS011;3961;42.058;25.586;2022-11-06T06:18:04;33.03;;;17.37;;
7831;SDS011;3961;42.058;25.586;2022-11-06T06:20:30;32.37;;;15.90;;
7831;SDS011;3961;42.058;25.586;2022-11-06T06:22:57;23.57;;;14.20;;
7831;SDS011;3961;42.058;25.586;2022-11-06T06:25:24;31.70;;;15.10;;
7831;SDS011;3961;42.058;25.586;2022-11-06T06:27:50;31.50;;;15.33;;
7831;SDS011;3961;42.058;25.586;2022-11-06T06:30:16;32.37;;;15.80;;
7831;SDS011;3961;42.058;25.586;2022-11-06T06:32:42;25.17;;;14.57;;
7831;SDS011;3961;42.058;25.586;2022-11-06T06:35:08;31.43;;;15.20;;
7831;SDS011;3961;42.058;25.586;2022-11-06T06:37:34;29.80;;;15.50;;
7831;SDS011;3961;42.058;25.586;2022-11-06T06:39:59;32.57;;;16.80;;
7831;SDS011;3961;42.058;25.586;2022-11-06T06:42:26;26.47;;;15.10;;
7831;SDS011;3961;42.058;25.586;2022-11-06T06:44:52;31.70;;;15.20;;
7831;SDS011;3961;42.058;25.586;2022-11-06T06:47:18;36.57;;;14.63;;
7831;SDS011;3961;42.058;25.586;2022-11-06T06:49:43;27.37;;;14.43;;
7831;SDS011;3961;42.058;25.586;2022-11-06T06:52:09;23.43;;;13.83;;
7831;SDS011;3961;42.058;25.586;2022-11-06T06:54:35;28.30;;;14.30;;
7831;SDS011;3961;42.058;25.586;2022-11-06T06:57:01;25.10;;;14.10;;
7831;SDS011;3961;42.058;25.586;2022-11-06T06:59:27;31.33;;;14.43;;
7831;SDS011;3961;42.058;25.586;2022-11-06T07:01:53;30.00;;;14.67;;
7831;SDS011;3961;42.058;25.586;2022-11-06T07:04:19;39.93;;;15.73;;
7831;SDS011;3961;42.058;25.586;2022-11-06T07:06:45;31.93;;;14.73;;
7831;SDS011;3961;42.058;25.586;2022-11-06T07:09:10;35.37;;;13.53;;
7831;SDS011;3961;42.058;25.586;2022-11-06T07:11:36;26.77;;;13.87;;
7831;SDS011;3961;42.058;25.586;2022-11-06T07:14:01;28.07;;;13.93;;
7831;SDS011;3961;42.058;25.586;2022-11-06T07:16:27;26.33;;;14.00;;
7831;SDS011;3961;42.058;25.586;2022-11-06T07:18:54;26.13;;;13.97;;
7831;SDS011;3961;42.058;25.586;2022-11-06T07:21:20;25.43;;;13.93;;
7831;SDS011;3961;42.058;25.586;2022-11-06T07:23:46;27.50;;;14.07;;
7831;SDS011;3961;42.058;25.586;2022-11-06T07:26:12;27.03;;;14.23;;
7831;SDS011;3961;42.058;25.586;2022-11-06T07:28:37;26.87;;;13.73;;
7831;SDS011;3961;42.058;25.586;2022-11-06T07:31:04;28.10;;;13.60;;
7831;SDS011;3961;42.058;25.586;2022-11-06T07:33:31;23.20;;;12.83;;
7831;SDS011;3961;42.058;25.586;2022-11-06T07:36:12;30.07;;;13.00;;
7831;SDS011;3961;42.058;25.586;2022-11-06T07:38:39;30.40;;;14.13;;
7831;SDS011;3961;42.058;25.586;2022-11-06T07:41:07;28.20;;;13.07;;
7831;SDS011;3961;42.058;25.586;2022-11-06T07:43:34;58.20;;;15.80;;
7831;SDS011;3961;42.058;25.586;2022-11-06T07:46:01;33.40;;;14.03;;
7831;SDS011;3961;42.058;25.586;2022-11-06T07:48:28;31.33;;;13.57;;
7831;SDS011;3961;42.058;25.586;2022-11-06T07:50:55;31.27;;;13.97;;
7831;SDS011;3961;42.058;25.586;2022-11-06T07:53:21;40.27;;;15.20;;
7831;SDS011;3961;42.058;25.586;2022-11-06T07:55:48;29.87;;;14.30;;
7831;SDS011;3961;42.058;25.586;2022-11-06T07:58:15;22.70;;;12.93;;
7831;SDS011;3961;42.058;25.586;2022-11-06T08:00:44;25.33;;;12.83;;
7831;SDS011;3961;42.058;25.586;2022-11-06T08:03:11;21.33;;;12.63;;
7831;SDS011;3961;42.058;25.586;2022-11-06T08:05:37;28.33;;;13.17;;
7831;SDS011;3961;42.058;25.586;2022-11-06T08:08:02;30.40;;;11.50;;
7831;SDS011;3961;42.058;25.586;2022-11-06T08:10:28;24.67;;;12.10;;
7831;SDS011;3961;42.058;25.586;2022-11-06T08:12:53;24.83;;;12.23;;
7831;SDS011;3961;42.058;25.586;2022-11-06T08:15:19;49.77;;;12.97;;
7831;SDS011;3961;42.058;25.586;2022-11-06T08:17:44;39.07;;;11.80;;
7831;SDS011;3961;42.058;25.586;2022-11-06T08:20:10;25.50;;;11.83;;
7831;SDS011;3961;42.058;25.586;2022-11-06T08:22:35;20.13;;;10.47;;
7831;SDS011;3961;42.058;25.586;2022-11-06T08:25:01;21.97;;;11.53;;
7831;SDS011;3961;42.058;25.586;2022-11-06T08:27:27;29.33;;;11.10;;
7831;SDS011;3961;42.058;25.586;2022-11-06T08:29:52;23.30;;;11.37;;
7831;SDS011;3961;42.058;25.586;2022-11-06T08:32:18;20.53;;;11.67;;
7831;SDS011;3961;42.058;25.586;2022-11-06T08:34:43;35.70;;;12.67;;
7831;SDS011;3961;42.058;25.586;2022-11-06T08:37:09;25.47;;;12.00;;
7831;SDS011;3961;42.058;25.586;2022-11-06T08:39:34;22.07;;;11.73;;
7831;SDS011;3961;42.058;25.586;2022-11-06T08:42:00;30.07;;;12.53;;
7831;SDS011;3961;42.058;25.586;2022-11-06T08:44:25;39.53;;;12.93;;
7831;SDS011;3961;42.058;25.586;2022-11-06T08:46:51;24.67;;;11.90;;
7831;SDS011;3961;42.058;25.586;2022-11-06T08:49:17;31.87;;;11.93;;
7831;SDS011;3961;42.058;25.586;2022-11-06T08:51:42;31.77;;;12.57;;
7831;SDS011;3961;42.058;25.586;2022-11-06T08:54:09;31.70;;;11.23;;
7831;SDS011;3961;42.058;25.586;2022-11-06T08:56:36;27.03;;;12.47;;
7831;SDS011;3961;42.058;25.586;2022-11-06T08:59:01;31.87;;;12.40;;
7831;SDS011;3961;42.058;25.586;2022-11-06T09:01:27;27.17;;;12.13;;
7831;SDS011;3961;42.058;25.586;2022-11-06T09:03:52;28.37;;;11.23;;
7831;SDS011;3961;42.058;25.586;2022-11-06T09:06:18;36.67;;;12.67;;
7831;SDS011;3961;42.058;25.586;2022-11-06T09:08:43;28.93;;;13.20;;
7831;SDS011;3961;42.058;25.586;2022-11-06T09:11:09;26.53;;;11.20;;
7831;SDS011;3961;42.058;25.586;2022-11-06T09:13:36;33.67;;;12.33;;
7831;SDS011;3961;42.058;25.586;2022-11-06T09:16:01;21.70;;;12.30;;
7831;SDS011;3961;42.058;25.586;2022-11-06T09:18:27;23.73;;;11.60;;
7831;SDS011;3961;42.058;25.586;2022-11-06T09:20:53;23.07;;;11.83;;
7831;SDS011;3961;42.058;25.586;2022-11-06T09:23:20;32.03;;;11.70;;
7831;SDS011;3961;42.058;25.586;2022-11-06T09:25:45;27.20;;;11.73;;
7831;SDS011;3961;42.058;25.586;2022-11-06T09:28:11;19.67;;;10.67;;
7831;SDS011;3961;42.058;25.586;2022-11-06T09:30:36;26.97;;;11.60;;
7831;SDS011;3961;42.058;25.586;2022-11-06T09:33:02;26.50;;;11.43;;
7831;SDS011;3961;42.058;25.586;2022-11-06T09:35:29;25.03;;;11.40;;
7831;SDS011;3961;42.058;25.586;2022-11-06T09:38:03;30.13;;;11.03;;
7831;SDS011;3961;42.058;25.586;2022-11-06T09:43:12;23.67;;;10.43;;
7831;SDS011;3961;42.058;25.586;2022-11-06T09:45:53;31.50;;;11.33;;
7831;SDS011;3961;42.058;25.586;2022-11-06T09:48:22;27.97;;;10.97;;
7831;SDS011;3961;42.058;25.586;2022-11-06T09:50:55;28.23;;;11.00;;
7831;SDS011;3961;42.058;25.586;2022-11-06T09:53:35;23.77;;;10.50;;
7831;SDS011;3961;42.058;25.586;2022-11-06T09:56:05;27.83;;;10.83;;
7831;SDS011;3961;42.058;25.586;2022-11-06T09:58:37;20.50;;;9.47;;
7831;SDS011;3961;42.058;25.586;2022-11-06T10:01:29;24.23;;;9.67;;
7831;SDS011;3961;42.058;25.586;2022-11-06T10:04:00;20.07;;;9.13;;
7831;SDS011;3961;42.058;25.586;2022-11-06T10:06:28;23.20;;;9.70;;
7831;SDS011;3961;42.058;25.586;2022-11-06T10:09:00;22.07;;;9.17;;
7831;SDS011;3961;42.058;25.586;2022-11-06T10:14:14;16.20;;;9.30;;
7831;SDS011;3961;42.058;25.586;2022-11-06T10:25:42;21.87;;;10.20;;
7831;SDS011;3961;42.058;25.586;2022-11-06T10:28:01;25.07;;;9.63;;
7831;SDS011;3961;42.058;25.586;2022-11-06T10:33:52;25.00;;;9.43;;
7831;SDS011;3961;42.058;25.586;2022-11-06T10:36:26;20.43;;;8.43;;
7831;SDS011;3961;42.058;25.586;2022-11-06T10:38:55;18.00;;;8.37;;
7831;SDS011;3961;42.058;25.586;2022-11-06T10:41:25;18.63;;;8.57;;
7831;SDS011;3961;42.058;25.586;2022-11-06T10:46:40;17.83;;;8.10;;
7831;SDS011;3961;42.058;25.586;2022-11-06T10:49:15;14.30;;;7.70;;
7831;SDS011;3961;42.058;25.586;2022-11-06T10:59:52;17.23;;;8.07;;
7831;SDS011;3961;42.058;25.586;2022-11-06T11:02:28;20.73;;;8.67;;
7831;SDS011;3961;42.058;25.586;2022-11-06T11:04:54;16.30;;;7.73;;
7831;SDS011;3961;42.058;25.586;2022-11-06T11:07:19;27.80;;;7.47;;
7831;SDS011;3961;42.058;25.586;2022-11-06T11:09:46;20.87;;;8.73;;
7831;SDS011;3961;42.058;25.586;2022-11-06T11:15:03;18.40;;;7.87;;
7831;SDS011;3961;42.058;25.586;2022-11-06T11:17:29;16.20;;;8.03;;
7831;SDS011;3961;42.058;25.586;2022-11-06T11:19:55;15.57;;;7.47;;
7831;SDS011;3961;42.058;25.586;2022-11-06T11:22:20;11.67;;;7.27;;
7831;SDS011;3961;42.058;25.586;2022-11-06T11:24:58;23.07;;;7.97;;
7831;SDS011;3961;42.058;25.586;2022-11-06T11:27:24;24.37;;;6.73;;
7831;SDS011;3961;42.058;25.586;2022-11-06T11:29:50;22.87;;;7.60;;
7831;SDS011;3961;42.058;25.586;2022-11-06T11:32:16;16.23;;;7.10;;
7831;SDS011;3961;42.058;25.586;2022-11-06T11:34:52;18.20;;;7.13;;
7831;SDS011;3961;42.058;25.586;2022-11-06T11:45:59;16.63;;;7.10;;
7831;SDS011;3961;42.058;25.586;2022-11-06T11:53:50;21.33;;;6.90;;
7831;SDS011;3961;42.058;25.586;2022-11-06T11:56:19;22.73;;;6.90;;
7831;SDS011;3961;42.058;25.586;2022-11-06T11:58:49;18.23;;;6.80;;
7831;SDS011;3961;42.058;25.586;2022-11-06T12:01:16;26.23;;;7.43;;
7831;SDS011;3961;42.058;25.586;2022-11-06T12:03:45;29.03;;;8.03;;
7831;SDS011;3961;42.058;25.586;2022-11-06T12:06:17;10.27;;;5.97;;
7831;SDS011;3961;42.058;25.586;2022-11-06T12:08:44;13.73;;;6.50;;
7831;SDS011;3961;42.058;25.586;2022-11-06T12:11:14;12.10;;;6.10;;
7831;SDS011;3961;42.058;25.586;2022-11-06T12:13:44;20.30;;;7.23;;
7831;SDS011;3961;42.058;25.586;2022-11-06T12:16:46;14.67;;;6.53;;
7831;SDS011;3961;42.058;25.586;2022-11-06T12:19:15;15.37;;;6.27;;
7831;SDS011;3961;42.058;25.586;2022-11-06T12:21:43;15.70;;;5.83;;
7831;SDS011;3961;42.058;25.586;2022-11-06T12:24:15;15.40;;;6.30;;
7831;SDS011;3961;42.058;25.586;2022-11-06T12:26:46;20.37;;;6.27;;
7831;SDS011;3961;42.058;25.586;2022-11-06T12:37:50;18.30;;;7.07;;
7831;SDS011;3961;42.058;25.586;2022-11-06T12:40:20;16.17;;;6.70;;
7831;SDS011;3961;42.058;25.586;2022-11-06T12:48:28;20.47;;;6.53;;
7831;SDS011;3961;42.058;25.586;2022-11-06T12:59:33;17.07;;;6.93;;
7831;SDS011;3961;42.058;25.586;2022-11-06T13:18:06;17.67;;;7.97;;
7831;SDS011;3961;42.058;25.586;2022-11-06T13:20:42;17.13;;;7.87;;
7831;SDS011;3961;42.058;25.586;2022-11-06T13:26:27;20.67;;;10.00;;
7831;SDS011;3961;42.058;25.586;2022-11-06T13:28:58;27.57;;;8.77;;
7831;SDS011;3961;42.058;25.586;2022-11-06T13:31:29;15.60;;;7.73;;
7831;SDS011;3961;42.058;25.586;2022-11-06T13:34:02;18.50;;;7.43;;
7831;SDS011;3961;42.058;25.586;2022-11-06T13:36:30;13.87;;;7.20;;
7831;SDS011;3961;42.058;25.586;2022-11-06T13:39:45;15.87;;;6.87;;
7831;SDS011;3961;42.058;25.586;2022-11-06T13:42:01;15.77;;;6.93;;
7831;SDS011;3961;42.058;25.586;2022-11-06T13:44:29;17.10;;;7.17;;
7831;SDS011;3961;42.058;25.586;2022-11-06T14:07:10;17.13;;;6.20;;
7831;SDS011;3961;42.058;25.586;2022-11-06T14:09:36;18.17;;;6.10;;
7831;SDS011;3961;42.058;25.586;2022-11-06T14:12:07;11.13;;;6.07;;
7831;SDS011;3961;42.058;25.586;2022-11-06T14:14:42;18.80;;;6.93;;
7831;SDS011;3961;42.058;25.586;2022-11-06T14:17:12;15.30;;;6.67;;
7831;SDS011;3961;42.058;25.586;2022-11-06T14:22:21;13.83;;;6.83;;
7831;SDS011;3961;42.058;25.586;2022-11-06T14:24:52;18.97;;;6.87;;
7831;SDS011;3961;42.058;25.586;2022-11-06T14:34:48;14.13;;;6.57;;
7831;SDS011;3961;42.058;25.586;2022-11-06T14:44:48;19.03;;;7.07;;
7831;SDS011;3961;42.058;25.586;2022-11-06T14:47:37;16.17;;;6.80;;
7831;SDS011;3961;42.058;25.586;2022-11-06T14:52:53;14.23;;;7.07;;
7831;SDS011;3961;42.058;25.586;2022-11-06T14:58:12;22.30;;;8.87;;
7831;SDS011;3961;42.058;25.586;2022-11-06T15:00:58;19.97;;;8.40;;
7831;SDS011;3961;42.058;25.586;2022-11-06T15:03:28;19.07;;;9.40;;
7831;SDS011;3961;42.058;25.586;2022-11-06T15:06:05;20.80;;;9.80;;
7831;SDS011;3961;42.058;25.586;2022-11-06T15:11:55;21.90;;;9.70;;
7831;SDS011;3961;42.058;25.586;2022-11-06T15:16:25;24.80;;;10.10;;
7831;SDS011;3961;42.058;25.586;2022-11-06T15:19:14;18.37;;;10.10;;
7831;SDS011;3961;42.058;25.586;2022-11-06T15:21:44;23.20;;;10.57;;
7831;SDS011;3961;42.058;25.586;2022-11-06T15:24:18;20.90;;;10.23;;
7831;SDS011;3961;42.058;25.586;2022-11-06T15:26:50;23.73;;;11.43;;
7831;SDS011;3961;42.058;25.586;2022-11-06T15:29:38;23.33;;;12.30;;
7831;SDS011;3961;42.058;25.586;2022-11-06T15:32:12;23.70;;;11.83;;
7831;SDS011;3961;42.058;25.586;2022-11-06T15:34:43;29.07;;;12.33;;
7831;SDS011;3961;42.058;25.586;2022-11-06T15:37:18;24.33;;;12.07;;
7831;SDS011;3961;42.058;25.586;2022-11-06T15:39:49;24.57;;;12.67;;
7831;SDS011;3961;42.058;25.586;2022-11-06T15:42:16;26.93;;;12.63;;
7831;SDS011;3961;42.058;25.586;2022-11-06T15:44:45;24.83;;;13.90;;
7831;SDS011;3961;42.058;25.586;2022-11-06T15:47:24;32.00;;;15.03;;
7831;SDS011;3961;42.058;25.586;2022-11-06T15:50:11;37.30;;;15.50;;
7831;SDS011;3961;42.058;25.586;2022-11-06T15:52:39;35.57;;;16.13;;
7831;SDS011;3961;42.058;25.586;2022-11-06T15:55:06;36.07;;;14.17;;
7831;SDS011;3961;42.058;25.586;2022-11-06T15:57:40;32.67;;;16.17;;
7831;SDS011;3961;42.058;25.586;2022-11-06T16:00:07;30.47;;;15.40;;
7831;SDS011;3961;42.058;25.586;2022-11-06T16:05:18;36.67;;;15.57;;
7831;SDS011;3961;42.058;25.586;2022-11-06T16:07:46;33.63;;;16.10;;
7831;SDS011;3961;42.058;25.586;2022-11-06T16:10:12;36.03;;;16.07;;
7831;SDS011;3961;42.058;25.586;2022-11-06T16:12:46;34.70;;;16.00;;
7831;SDS011;3961;42.058;25.586;2022-11-06T16:18:31;33.33;;;16.70;;
7831;SDS011;3961;42.058;25.586;2022-11-06T16:21:10;28.00;;;15.23;;
7831;SDS011;3961;42.058;25.586;2022-11-06T16:23:44;36.70;;;16.27;;
7831;SDS011;3961;42.058;25.586;2022-11-06T16:26:21;35.57;;;15.43;;
7831;SDS011;3961;42.058;25.586;2022-11-06T16:28:51;31.90;;;15.77;;
7831;SDS011;3961;42.058;25.586;2022-11-06T16:31:22;31.17;;;17.03;;
7831;SDS011;3961;42.058;25.586;2022-11-06T16:34:00;43.30;;;17.03;;
7831;SDS011;3961;42.058;25.586;2022-11-06T16:36:31;34.90;;;16.17;;
7831;SDS011;3961;42.058;25.586;2022-11-06T16:39:45;35.77;;;15.23;;
7831;SDS011;3961;42.058;25.586;2022-11-06T16:42:31;31.97;;;16.17;;
7831;SDS011;3961;42.058;25.586;2022-11-06T16:45:16;32.60;;;15.83;;
7831;SDS011;3961;42.058;25.586;2022-11-06T16:48:30;27.97;;;14.37;;
7831;SDS011;3961;42.058;25.586;2022-11-06T16:50:48;32.20;;;14.73;;
7831;SDS011;3961;42.058;25.586;2022-11-06T16:53:22;38.60;;;15.37;;
7831;SDS011;3961;42.058;25.586;2022-11-06T16:56:08;31.27;;;14.27;;
7831;SDS011;3961;42.058;25.586;2022-11-06T16:58:42;32.10;;;14.10;;
7831;SDS011;3961;42.058;25.586;2022-11-06T17:01:15;31.83;;;14.67;;
7831;SDS011;3961;42.058;25.586;2022-11-06T17:06:20;26.50;;;13.77;;
7831;SDS011;3961;42.058;25.586;2022-11-06T17:11:31;31.47;;;14.50;;
7831;SDS011;3961;42.058;25.586;2022-11-06T17:13:56;28.00;;;13.63;;
7831;SDS011;3961;42.058;25.586;2022-11-06T17:16:23;30.73;;;13.37;;
7831;SDS011;3961;42.058;25.586;2022-11-06T17:18:50;29.70;;;13.10;;
7831;SDS011;3961;42.058;25.586;2022-11-06T17:21:17;25.33;;;13.77;;
7831;SDS011;3961;42.058;25.586;2022-11-06T17:23:50;25.30;;;12.33;;
7831;SDS011;3961;42.058;25.586;2022-11-06T17:26:23;27.27;;;13.07;;
7831;SDS011;3961;42.058;25.586;2022-11-06T17:28:53;29.80;;;13.40;;
7831;SDS011;3961;42.058;25.586;2022-11-06T17:31:19;30.47;;;13.00;;
7831;SDS011;3961;42.058;25.586;2022-11-06T17:33:46;27.07;;;13.17;;
7831;SDS011;3961;42.058;25.586;2022-11-06T17:36:16;26.23;;;13.63;;
7831;SDS011;3961;42.058;25.586;2022-11-06T17:38:42;29.60;;;12.90;;
7831;SDS011;3961;42.058;25.586;2022-11-06T17:41:08;27.57;;;13.43;;
7831;SDS011;3961;42.058;25.586;2022-11-06T17:43:34;27.77;;;13.83;;
7831;SDS011;3961;42.058;25.586;2022-11-06T17:46:00;29.10;;;12.07;;
7831;SDS011;3961;42.058;25.586;2022-11-06T17:48:26;29.87;;;14.13;;
7831;SDS011;3961;42.058;25.586;2022-11-06T17:50:55;29.77;;;13.33;;
7831;SDS011;3961;42.058;25.586;2022-11-06T17:53:39;25.00;;;11.93;;
7831;SDS011;3961;42.058;25.586;2022-11-06T17:56:05;30.27;;;12.87;;
7831;SDS011;3961;42.058;25.586;2022-11-06T17:58:31;30.00;;;12.73;;